createdAt,value
2018-09-19T09:17:29.635Z,0
2018-09-19T09:17:43.522Z,0
2018-09-19T09:17:57.196Z,0
2018-09-19T09:18:10.898Z,0
2018-09-19T09:18:24.540Z,0
2018-09-19T09:18:38.217Z,0
2018-09-19T09:18:51.812Z,0
2018-09-19T09:19:05.391Z,0
2018-09-19T09:19:19.028Z,0
2018-09-19T09:19:33.665Z,0
2018-09-19T09:19:48.304Z,0
2018-09-19T09:20:02.826Z,0
2018-09-19T09:20:17.328Z,0
2018-09-19T09:20:31.583Z,0
2018-09-19T09:20:45.716Z,0
2018-09-19T09:21:00.535Z,0
2018-09-19T09:21:13.789Z,0
2018-09-19T09:21:28.022Z,0
2018-09-19T09:21:42.308Z,0
2018-09-19T09:21:56.565Z,0
2018-09-19T09:22:10.867Z,0
2018-09-19T09:22:25.309Z,0
2018-09-19T09:22:39.476Z,0
2018-09-19T09:22:53.881Z,0
2018-09-19T09:23:08.064Z,0
2018-09-19T09:23:22.381Z,0
2018-09-19T09:23:36.774Z,0
2018-09-19T09:23:51.202Z,0
2018-09-19T09:24:05.427Z,0
2018-09-19T09:24:20.076Z,0
2018-09-19T09:24:33.729Z,0
2018-09-19T09:24:47.900Z,0
2018-09-19T09:25:02.496Z,0
2018-09-19T09:25:16.480Z,0
2018-09-19T09:25:31.000Z,0
2018-09-19T09:26:09.533Z,0
2018-09-19T09:26:23.682Z,0
2018-09-19T09:26:38.101Z,0
2018-09-19T09:26:52.393Z,0
2018-09-19T09:27:06.647Z,0
2018-09-19T09:27:20.774Z,0
2018-09-19T09:27:34.886Z,0
2018-09-19T09:27:49.142Z,0
2018-09-19T09:28:04.554Z,0
2018-09-19T09:28:18.807Z,0
2018-09-19T09:28:32.776Z,0
2018-09-19T09:28:46.485Z,0
2018-09-19T09:29:00.085Z,0
2018-09-19T09:29:14.332Z,0
2018-09-19T09:29:28.168Z,0
2018-09-19T09:30:09.186Z,0
2018-09-19T09:30:23.351Z,0
2018-09-19T09:30:37.645Z,0
2018-09-19T09:30:51.923Z,0
2018-09-19T09:31:06.357Z,0
2018-09-19T09:31:50.223Z,0
2018-09-19T09:32:04.470Z,0
2018-09-19T09:32:28.883Z,0
2018-09-19T09:40:29.650Z,0
2018-09-19T09:40:45.431Z,0
2018-09-19T09:41:01.337Z,0
2018-09-19T09:41:16.993Z,0
2018-09-19T09:41:33.038Z,0
2018-09-19T09:41:48.661Z,0
2018-09-19T09:42:04.194Z,0
2018-09-19T09:42:18.934Z,0
2018-09-19T09:42:34.591Z,0
2018-09-19T09:42:50.369Z,0
2018-09-19T09:43:05.198Z,0
2018-09-19T09:43:19.086Z,0
2018-09-19T09:43:33.387Z,0
2018-09-19T09:43:47.489Z,0
2018-09-19T09:44:01.281Z,0
2018-09-19T09:45:12.569Z,0
2018-09-19T09:45:27.032Z,0
2018-09-19T09:45:40.976Z,0
2018-09-19T09:45:54.813Z,0
2018-09-19T09:46:27.259Z,0
2018-09-19T09:46:44.056Z,0
2018-09-19T09:46:59.434Z,0
2018-09-19T09:47:14.620Z,0
2018-09-19T09:47:29.073Z,0
2018-09-19T09:47:43.193Z,0
2018-09-19T09:47:57.239Z,0
2018-09-19T09:48:11.751Z,0
2018-09-19T09:48:25.708Z,0
2018-09-19T09:48:40.096Z,0
2018-09-19T09:48:54.567Z,0
2018-09-19T09:49:08.796Z,0
2018-09-19T09:49:23.304Z,0
2018-09-19T09:49:39.686Z,0
2018-09-19T09:49:54.617Z,0
2018-09-19T09:50:10.369Z,0
2018-09-19T09:50:25.887Z,0
2018-09-19T09:50:41.372Z,0
2018-09-19T09:50:56.780Z,0
2018-09-19T09:51:12.439Z,0
2018-09-19T09:51:29.414Z,0
2018-09-19T09:52:11.046Z,0
2018-09-19T09:52:30.941Z,0
2018-09-19T09:52:48.391Z,0
2018-09-19T09:53:03.547Z,0
2018-09-19T09:53:20.441Z,0
2018-09-19T09:53:35.158Z,0
2018-09-19T09:54:59.997Z,0
2018-09-19T09:55:14.236Z,0
2018-09-19T09:55:28.285Z,0
2018-09-19T09:55:43.756Z,0
2018-09-19T09:55:58.001Z,0
2018-09-19T09:56:12.465Z,0
2018-09-19T09:56:27.437Z,0
2018-09-19T09:56:42.302Z,0
2018-09-19T09:56:56.944Z,0
2018-09-19T09:57:14.012Z,0
2018-09-19T09:57:28.852Z,0
2018-09-19T09:57:43.058Z,0
2018-09-19T09:57:57.422Z,0
2018-09-19T09:58:11.978Z,0
2018-09-19T09:58:26.699Z,0
2018-09-19T09:58:41.310Z,0
2018-09-19T09:58:57.422Z,0
2018-09-19T09:59:12.409Z,0
2018-09-19T09:59:40.817Z,0
2018-09-19T09:59:56.218Z,0
2018-09-19T10:00:10.409Z,0
2018-09-19T10:00:25.394Z,0
2018-09-19T10:01:03.060Z,0
2018-09-19T10:02:22.638Z,0
2018-09-19T10:02:39.037Z,0
2018-09-19T10:02:54.483Z,0
2018-09-19T10:03:10.191Z,0
2018-09-19T10:03:26.949Z,0
2018-09-19T10:03:42.814Z,0
2018-09-19T10:03:58.817Z,0
2018-09-19T10:04:15.335Z,0
2018-09-19T10:04:31.187Z,0
2018-09-19T10:04:47.317Z,0
2018-09-19T10:05:03.138Z,0
2018-09-19T10:05:20.448Z,0
2018-09-19T10:05:36.195Z,0
2018-09-19T10:05:55.720Z,0
2018-09-19T10:06:10.939Z,0
2018-09-19T10:06:26.031Z,0
2018-09-19T10:06:42.170Z,0
2018-09-19T10:06:59.092Z,0
2018-09-19T10:07:15.253Z,0
2018-09-19T10:07:29.365Z,0
2018-09-19T10:07:44.362Z,0
2018-09-19T10:07:58.657Z,0
2018-09-19T10:08:13.203Z,0
2018-09-19T10:08:27.685Z,0
2018-09-19T10:08:41.950Z,0
2018-09-19T10:08:56.282Z,0
2018-09-19T10:09:46.339Z,0
2018-09-19T10:10:01.618Z,0
2018-09-19T10:10:15.961Z,0
2018-09-19T10:10:29.992Z,0
2018-09-19T10:10:44.063Z,2.3
2018-09-19T10:10:58.140Z,2.5
2018-09-19T10:11:12.614Z,2.5
2018-09-19T10:11:27.084Z,2.4
2018-09-19T10:11:40.627Z,2.4
2018-09-19T10:11:54.365Z,2.6
2018-09-19T10:12:08.401Z,2.9
2018-09-19T10:12:23.623Z,2.7
2018-09-19T10:12:37.538Z,2.6
2018-09-19T10:12:51.983Z,2.6
2018-09-19T10:13:06.973Z,3
2018-09-19T10:13:21.133Z,3
2018-09-19T10:13:35.224Z,2.7
2018-09-19T10:13:50.213Z,2.6
2018-09-19T10:14:04.340Z,2.9
2018-09-19T10:14:18.472Z,2.8
2018-09-19T10:14:32.525Z,2.6
2018-09-19T10:14:46.885Z,2.5
2018-09-19T10:15:01.032Z,2.6
2018-09-19T10:15:15.198Z,2.6
2018-09-19T10:15:29.413Z,2.7
2018-09-19T10:15:43.562Z,2.7
2018-09-19T10:15:57.197Z,2.6
2018-09-19T10:16:12.045Z,2.4
2018-09-19T10:16:26.229Z,2.6
2018-09-19T10:16:40.642Z,2.8
2018-09-19T10:16:54.728Z,2.6
2018-09-19T10:17:09.657Z,2.5
2018-09-19T10:17:23.772Z,2.8
2018-09-19T10:17:38.096Z,3
2018-09-19T10:17:52.479Z,2.8
2018-09-19T10:18:06.965Z,2.4
2018-09-19T10:18:21.217Z,2.6
2018-09-19T10:18:35.421Z,2.7
2018-09-19T10:18:49.555Z,2.5
2018-09-19T10:19:03.471Z,2.5
2018-09-19T10:19:17.984Z,2.3
2018-09-19T10:19:32.537Z,2.4
2018-09-19T10:19:46.688Z,2.5
2018-09-19T10:20:01.948Z,2.7
2018-09-19T10:20:16.414Z,2.6
2018-09-19T10:20:30.219Z,2.6
2018-09-19T10:20:45.450Z,2.8
2018-09-19T10:21:00.042Z,2.7
2018-09-19T10:21:14.551Z,2.6
2018-09-19T10:21:30.659Z,2.7
2018-09-19T10:21:45.178Z,2.8
2018-09-19T10:21:59.519Z,2.7
2018-09-19T10:22:13.724Z,2.7
2018-09-19T10:22:27.850Z,2.8
2018-09-19T10:22:42.206Z,2.8
2018-09-19T10:22:57.419Z,2.6
2018-09-19T10:23:12.759Z,2.8
2018-09-19T10:23:27.072Z,3
2018-09-19T10:23:41.345Z,2.9
2018-09-19T10:23:55.664Z,2.7
2018-09-19T10:24:09.846Z,2.9
2018-09-19T10:24:24.126Z,2.6
2018-09-19T10:24:38.007Z,2.4
2018-09-19T10:24:52.731Z,2.6
2018-09-19T10:25:06.873Z,2.9
2018-09-19T10:25:20.533Z,3
2018-09-19T10:25:34.320Z,2.7
2018-09-19T10:25:48.986Z,2.5
2018-09-19T10:26:03.200Z,2.7
2018-09-19T10:26:17.299Z,2.5
2018-09-19T10:26:31.431Z,2.4
2018-09-19T10:26:45.557Z,2.5
2018-09-19T10:27:00.710Z,2.7
2018-09-19T10:27:14.909Z,2.7
2018-09-19T10:27:29.242Z,2.5
2018-09-19T10:27:43.730Z,2.4
2018-09-19T10:27:59.170Z,2.2
2018-09-19T10:28:15.845Z,2.3
2018-09-19T10:28:32.212Z,2.5
2018-09-19T10:28:46.481Z,2.8
2018-09-19T10:29:00.252Z,2.8
2018-09-19T10:29:13.855Z,2.6
2018-09-19T10:29:27.733Z,2.3
2018-09-19T10:29:41.490Z,2.3
2018-09-19T10:29:55.276Z,2.6
2018-09-19T10:30:09.496Z,2.6
2018-09-19T10:30:23.366Z,2.4
2018-09-19T10:30:37.736Z,2.4
2018-09-19T10:31:18.408Z,2.3
2018-09-19T10:31:32.096Z,2.4
2018-09-19T10:31:46.485Z,2.4
2018-09-19T10:32:00.745Z,2.5
2018-09-19T10:32:15.049Z,2.6
2018-09-19T10:32:30.093Z,2.7
2018-09-19T10:32:43.699Z,2.6
2018-09-19T10:32:58.082Z,2.4
2018-09-19T10:33:12.591Z,2.7
2018-09-19T10:33:27.449Z,2.6
2018-09-19T10:33:42.423Z,2.5
2018-09-19T10:33:58.591Z,2.2
2018-09-19T10:34:12.864Z,2.7
2018-09-19T10:34:27.218Z,3
2018-09-19T10:34:42.321Z,2.7
2018-09-19T10:34:56.525Z,2.5
2018-09-19T10:35:10.611Z,2.3
2018-09-19T10:35:25.425Z,2.4
2018-09-19T10:35:39.674Z,2.5
2018-09-19T10:35:53.644Z,2.4
2018-09-19T10:36:08.473Z,2.1
2018-09-19T10:36:22.841Z,2.2
2018-09-19T10:36:36.841Z,2.2
2018-09-19T10:36:51.321Z,2.2
2018-09-19T10:37:05.766Z,2.5
2018-09-19T10:37:20.484Z,2.4
2018-09-19T10:37:34.760Z,2.3
2018-09-19T10:37:48.384Z,2.5
2018-09-19T10:38:02.279Z,2.3
2018-09-19T10:38:38.140Z,2.5
2018-09-19T10:38:53.555Z,2.2
2018-09-19T10:39:07.540Z,2
2018-09-19T10:39:21.433Z,2.5
2018-09-19T10:39:35.245Z,2.4
2018-09-19T10:39:49.544Z,2.3
2018-09-19T10:40:29.663Z,2.6
2018-09-19T10:40:44.110Z,2.5
2018-09-19T10:40:58.125Z,2.4
2018-09-19T10:41:12.462Z,2.4
2018-09-19T10:41:26.764Z,2.5
2018-09-19T10:41:41.138Z,2.4
2018-09-19T10:41:56.158Z,2.1
2018-09-19T10:42:09.785Z,2.2
2018-09-19T10:42:24.742Z,2.4
2018-09-19T10:42:39.419Z,2.4
2018-09-19T10:42:53.570Z,2.4
2018-09-19T10:43:07.462Z,2.6
2018-09-19T10:43:21.499Z,2.6
2018-09-19T10:43:35.758Z,2.8
2018-09-19T10:43:50.128Z,2.8
2018-09-19T10:44:04.650Z,2.7
2018-09-19T10:44:18.764Z,2.6
2018-09-19T10:45:14.678Z,2.5
2018-09-19T10:45:28.976Z,2.3
2018-09-19T10:45:44.359Z,2.5
2018-09-19T10:45:58.641Z,2.5
2018-09-19T10:46:12.968Z,2.2
2018-09-19T10:46:27.556Z,2.1
2018-09-19T10:46:41.239Z,2.2
2018-09-19T10:46:55.661Z,2.4
2018-09-19T10:47:10.139Z,2.5
2018-09-19T10:47:24.441Z,2.5
2018-09-19T10:47:38.611Z,2.7
2018-09-19T10:47:53.359Z,2.9
2018-09-19T10:48:08.171Z,2.8
2018-09-19T10:48:23.063Z,2.8
2018-09-19T10:51:37.372Z,2.4
2018-09-19T10:51:51.483Z,2.7
2018-09-19T10:52:05.515Z,2.7
2018-09-19T10:52:19.465Z,2.7
2018-09-19T10:52:34.293Z,2.6
2018-09-19T10:52:48.183Z,2.7
2018-09-19T10:53:02.120Z,2.9
2018-09-19T10:53:16.207Z,2.8
2018-09-19T10:53:30.226Z,2.6
2018-09-19T10:53:44.099Z,2.5
2018-09-19T10:53:57.902Z,2.4
2018-09-19T10:54:39.399Z,2.4
2018-09-19T10:54:53.316Z,2.6
2018-09-19T10:55:07.385Z,2.9
2018-09-19T10:55:21.236Z,2.9
2018-09-19T10:55:35.142Z,2.7
2018-09-19T10:55:49.069Z,2.7
2018-09-19T10:56:03.021Z,2.6
2018-09-19T10:56:17.039Z,2.5
2018-09-19T10:56:31.024Z,2.5
2018-09-19T10:56:45.018Z,2.5
2018-09-19T10:56:59.040Z,2.5
2018-09-19T10:57:12.959Z,2.5
2018-09-19T10:57:26.931Z,2.4
2018-09-19T11:42:00.894Z,4.6
2018-09-19T11:42:14.642Z,4.8
2018-09-19T11:42:28.429Z,4.9
2018-09-19T11:42:43.021Z,4.7
2018-09-19T11:42:56.744Z,4.7
2018-09-19T11:43:10.454Z,5.2
2018-09-19T11:43:24.186Z,5.1
2018-09-19T11:43:37.903Z,5
2018-09-19T11:43:51.628Z,4.9
2018-09-19T11:44:05.504Z,5.1
2018-09-19T11:44:19.384Z,5.4
2018-09-19T11:44:33.444Z,5.4
2018-09-19T11:44:47.674Z,5.4
2018-09-19T11:45:01.590Z,5.5
2018-09-19T11:45:15.297Z,5.3
2018-09-19T11:45:29.060Z,5.1
2018-09-19T11:45:42.831Z,5.3
2018-09-19T11:45:56.477Z,5.3
2018-09-19T11:46:10.217Z,5
2018-09-19T11:56:07.264Z,5.5
2018-09-19T11:56:21.087Z,5.3
2018-09-19T11:56:34.834Z,5.2
2018-09-19T11:56:48.600Z,5.4
2018-09-19T11:57:02.385Z,4.9
2018-09-19T11:57:16.112Z,4.9
2018-09-19T11:57:29.850Z,4.9
2018-09-19T11:57:43.587Z,4.9
2018-09-19T11:57:57.334Z,4.9
2018-09-19T11:58:11.021Z,4.9
2018-09-19T11:58:24.816Z,4.9
2018-09-19T11:58:38.596Z,4.9
2018-09-19T11:58:52.338Z,5
2018-09-19T11:59:06.080Z,4.8
2018-09-19T11:59:19.801Z,4.9
2018-09-19T11:59:33.625Z,5
2018-09-19T11:59:47.369Z,5.1
2018-09-19T12:00:01.079Z,5
2018-09-19T12:00:14.843Z,5.1
2018-09-19T12:00:28.563Z,4.8
2018-09-19T12:00:42.289Z,4.8
2018-09-19T12:00:56.003Z,5.1
2018-09-19T12:01:09.785Z,5.2
2018-09-19T12:01:23.437Z,5.1
2018-09-19T12:01:37.126Z,5
2018-09-19T12:01:50.868Z,5
2018-09-19T12:02:04.526Z,5.1
2018-09-19T12:02:18.223Z,5.1
2018-09-19T12:02:31.862Z,5
2018-09-19T12:02:45.558Z,4.8
2018-09-19T12:02:59.221Z,4.6
2018-09-19T12:03:12.934Z,4.8
2018-09-19T12:03:26.684Z,4.9
2018-09-19T12:03:40.383Z,5
2018-09-19T12:03:54.120Z,5.1
2018-09-19T12:04:07.777Z,5
2018-09-19T12:04:23.488Z,5
2018-09-19T12:04:37.227Z,5.2
2018-09-19T12:04:50.987Z,5.3
2018-09-19T12:05:04.681Z,5.3
2018-09-19T12:05:18.353Z,5.3
2018-09-19T12:05:32.038Z,4.9
2018-09-19T12:05:45.735Z,4.6
2018-09-19T12:05:59.484Z,4.4
2018-09-19T12:06:13.243Z,4.6
2018-09-19T12:06:27.054Z,4.7
2018-09-19T12:06:40.817Z,4.7
2018-09-19T12:06:54.540Z,5
2018-09-19T12:07:08.240Z,4.8
2018-09-19T12:07:22.001Z,4.7
2018-09-19T12:07:35.607Z,4.6
